Time;durP1;ratioP1;P1;durP2;ratioP2;P2;SDS_P1;SDS_P2;PMS_P1;PMS_P2;Temp;Humidity;BMP_temperature;BMP_pressure;BME280_temperature;BME280_humidity;BME280_pressure;Samples;Min_cycle;Max_cycle;Signal;HPM_P1;HPM_P2
2023/07/22 00:00:43;;;;;;;10.73;4.65;;;13.40;1.00;;;;;;5012024;28;20046;-73
2023/07/22 00:03:09;;;;;;;10.73;5.18;;;13.40;1.00;;;;;;5011988;28;20408;-74
2023/07/22 00:05:34;;;;;;;10.60;5.20;;;14.10;1.00;;;;;;5011927;28;20046;-73
2023/07/22 00:08:00;;;;;;;9.15;4.80;;;13.80;1.00;;;;;;5011932;28;20069;-73
2023/07/22 00:10:26;;;;;;;10.80;5.47;;;13.30;2.60;;;;;;5011750;28;20485;-73
2023/07/22 00:12:51;;;;;;;9.93;5.35;;;13.20;5.20;;;;;;5011890;28;20041;-73
2023/07/22 00:15:17;;;;;;;10.13;4.82;;;13.80;14.50;;;;;;5011751;28;20505;-73
2023/07/22 00:17:43;;;;;;;7.30;5.25;;;13.40;10.80;;;;;;5011820;28;20046;-74
2023/07/22 00:20:13;;;;;;;10.45;4.63;;;14.00;7.90;;;;;;4995421;28;20033;-74
2023/07/22 00:22:39;;;;;;;10.20;5.32;;;13.30;6.80;;;;;;5011775;28;20046;-74
2023/07/22 00:25:10;;;;;;;7.40;4.65;;;12.90;32.80;;;;;;5011775;28;20045;-74
2023/07/22 00:27:42;;;;;;;10.43;4.65;;;13.30;29.60;;;;;;4995308;28;20103;-74
2023/07/22 00:30:08;;;;;;;8.23;4.45;;;13.40;28.10;;;;;;5012694;28;20042;-74
2023/07/22 00:32:36;;;;;;;6.97;4.63;;;13.20;31.00;;;;;;5015885;28;20042;-74
2023/07/22 00:35:06;;;;;;;8.32;4.80;;;13.30;36.30;;;;;;5016272;28;20029;-73
2023/07/22 00:37:32;;;;;;;9.35;4.55;;;13.00;35.40;;;;;;5015963;28;20498;-74
2023/07/22 00:39:58;;;;;;;11.68;4.68;;;13.70;36.40;;;;;;5015588;28;20080;-74
2023/07/22 00:42:23;;;;;;;9.82;5.57;;;13.30;35.40;;;;;;5015578;28;20220;-74
2023/07/22 00:44:49;;;;;;;11.05;5.40;;;12.90;29.60;;;;;;5015395;28;20473;-74
2023/07/22 00:47:17;;;;;;;10.50;5.70;;;13.30;30.00;;;;;;5015474;28;20045;-74
2023/07/22 00:49:43;;;;;;;8.40;4.45;;;13.50;30.50;;;;;;5015337;28;20053;-74
2023/07/22 00:52:08;;;;;;;8.30;5.18;;;13.40;31.00;;;;;;5015369;28;20486;-74
2023/07/22 00:54:34;;;;;;;10.10;4.97;;;12.90;29.40;;;;;;5015291;28;20049;-74
2023/07/22 00:57:00;;;;;;;8.35;4.85;;;13.60;33.20;;;;;;4998962;28;20037;-74
2023/07/22 00:59:25;;;;;;;8.68;4.63;;;12.90;30.70;;;;;;5015813;28;20037;-74
2023/07/22 01:01:51;;;;;;;7.68;5.00;;;12.90;33.00;;;;;;5015218;28;20088;-74
2023/07/22 01:04:19;;;;;;;8.93;5.40;;;13.50;30.30;;;;;;5015389;28;20088;-74
2023/07/22 01:06:45;;;;;;;6.70;4.45;;;12.60;30.50;;;;;;5015071;28;20037;-74
2023/07/22 01:09:11;;;;;;;8.75;4.78;;;12.70;34.80;;;;;;5015019;28;20124;-74
2023/07/22 01:11:37;;;;;;;9.20;5.43;;;12.60;31.50;;;;;;5015032;28;20116;-74
2023/07/22 01:14:03;;;;;;;11.43;5.57;;;12.90;32.30;;;;;;5015048;28;20509;-74
2023/07/22 01:16:29;;;;;;;11.25;5.45;;;13.00;31.10;;;;;;4998575;28;20030;-74
2023/07/22 01:18:55;;;;;;;10.02;5.10;;;12.70;31.10;;;;;;5014949;28;20450;-74
2023/07/22 01:21:23;;;;;;;9.57;4.85;;;12.70;30.50;;;;;;5014782;28;20046;-74
2023/07/22 01:23:50;;;;;;;9.82;5.05;;;12.60;31.20;;;;;;5015086;28;20045;-74
2023/07/22 01:26:15;;;;;;;10.95;5.53;;;12.70;29.80;;;;;;5014810;28;20049;-74
2023/07/22 01:28:41;;;;;;;9.77;4.72;;;12.50;31.40;;;;;;5014776;28;20034;-74
2023/07/22 01:31:07;;;;;;;7.15;5.10;;;12.50;33.30;;;;;;5014642;28;20045;-74
2023/07/22 01:33:32;;;;;;;9.85;5.32;;;12.70;33.70;;;;;;5014498;28;20489;-74
2023/07/22 01:35:58;;;;;;;11.25;5.10;;;12.80;35.00;;;;;;4998200;28;20038;-74
2023/07/22 01:38:24;;;;;;;9.98;4.78;;;12.50;39.00;;;;;;5014406;28;20073;-74
2023/07/22 01:40:49;;;;;;;11.35;5.25;;;12.40;38.80;;;;;;5014475;28;20038;-74
2023/07/22 01:43:15;;;;;;;10.15;5.10;;;12.50;39.20;;;;;;5013160;28;20120;-74
2023/07/22 01:45:42;;;;;;;9.75;5.05;;;12.30;46.80;;;;;;4998111;28;20050;-73
2023/07/22 01:48:08;;;;;;;7.35;4.43;;;12.50;47.80;;;;;;5014671;28;20050;-74
2023/07/22 01:50:33;;;;;;;8.80;5.18;;;13.10;48.10;;;;;;5014159;28;20038;-73
2023/07/22 01:52:59;;;;;;;7.85;4.68;;;12.80;52.70;;;;;;5014221;28;20511;-73
2023/07/22 01:55:24;;;;;;;8.80;4.82;;;12.20;55.10;;;;;;5014487;28;20397;-73
2023/07/22 01:57:50;;;;;;;10.00;5.05;;;12.40;56.80;;;;;;5014449;28;20042;-74
2023/07/22 02:00:16;;;;;;;8.15;4.95;;;12.30;57.40;;;;;;5014142;28;20038;-74
2023/07/22 02:02:42;;;;;;;8.45;4.80;;;12.40;57.40;;;;;;5033207;22;20389;-61
2023/07/22 02:05:10;;;;;;;10.40;5.30;;;12.20;53.50;;;;;;5035449;28;20515;-61
2023/07/22 02:07:36;;;;;;;9.18;4.57;;;12.20;54.90;;;;;;5035355;28;20041;-61
2023/07/22 02:10:01;;;;;;;10.30;4.75;;;12.20;56.10;;;;;;5035245;28;20033;-61
2023/07/22 02:12:27;;;;;;;8.73;4.82;;;12.30;74.30;;;;;;5034853;28;20095;-61
2023/07/22 02:14:52;;;;;;;8.93;4.90;;;12.20;74.90;;;;;;5035214;28;20037;-61
2023/07/22 02:17:18;;;;;;;10.02;4.97;;;12.20;80.00;;;;;;5035101;28;20033;-61
2023/07/22 02:19:44;;;;;;;7.97;4.50;;;12.30;82.90;;;;;;5035099;28;20439;-61
2023/07/22 02:22:09;;;;;;;9.10;4.97;;;12.10;80.40;;;;;;5035047;28;20151;-61
2023/07/22 02:24:35;;;;;;;9.18;4.78;;;12.20;78.50;;;;;;5034953;28;20128;-61
2023/07/22 02:27:01;;;;;;;9.60;4.85;;;12.20;77.60;;;;;;5034975;28;20453;-61
2023/07/22 02:29:26;;;;;;;8.73;5.03;;;12.10;79.70;;;;;;5034824;28;20116;-61
2023/07/22 02:31:52;;;;;;;7.82;4.32;;;12.10;79.50;;;;;;5034823;28;20447;-61
2023/07/22 02:34:17;;;;;;;9.10;4.88;;;12.50;82.60;;;;;;5034791;28;20120;-61
2023/07/22 02:36:43;;;;;;;12.32;5.60;;;11.90;83.00;;;;;;5033278;28;20133;-61
2023/07/22 02:39:09;;;;;;;8.73;5.13;;;12.00;86.20;;;;;;5034445;28;20033;-61
2023/07/22 02:41:36;;;;;;;10.02;5.40;;;12.80;89.80;;;;;;5034685;28;20511;-61
2023/07/22 02:44:03;;;;;;;9.32;4.95;;;12.10;89.00;;;;;;5034575;28;20037;-61
2023/07/22 02:46:28;;;;;;;11.02;5.72;;;12.50;90.20;;;;;;5034302;28;20116;-61
2023/07/22 02:48:54;;;;;;;7.95;5.20;;;12.60;90.90;;;;;;5034289;28;20457;-61
2023/07/22 02:51:20;;;;;;;8.95;5.18;;;12.20;90.50;;;;;;5034423;28;20045;-61
2023/07/22 02:53:46;;;;;;;9.85;4.68;;;12.00;90.70;;;;;;5034001;28;20559;-61
2023/07/22 02:56:12;;;;;;;10.23;5.22;;;12.10;89.90;;;;;;5034091;28;20038;-61
2023/07/22 02:58:39;;;;;;;8.30;4.72;;;12.60;90.70;;;;;;5033972;28;20076;-61
2023/07/22 03:01:05;;;;;;;7.65;4.55;;;12.10;90.80;;;;;;5034332;28;20373;-61
2023/07/22 03:03:33;;;;;;;10.55;5.72;;;12.20;92.20;;;;;;5033786;28;20045;-61
2023/07/22 03:05:59;;;;;;;9.55;5.00;;;11.90;92.60;;;;;;5033858;28;20049;-61
2023/07/22 03:08:25;;;;;;;8.93;4.70;;;11.90;96.50;;;;;;5034102;28;20037;-61
2023/07/22 03:10:50;;;;;;;9.15;5.13;;;11.80;98.10;;;;;;5032578;28;20377;-61
2023/07/22 03:13:16;;;;;;;10.48;4.55;;;11.90;99.90;;;;;;5034044;28;20041;-62
2023/07/22 03:15:42;;;;;;;10.23;4.93;;;12.10;99.90;;;;;;5032534;28;20052;-61
2023/07/22 03:18:09;;;;;;;10.80;5.18;;;12.20;99.90;;;;;;5032964;28;20119;-61
2023/07/22 03:20:36;;;;;;;8.60;4.90;;;11.90;99.90;;;;;;5032432;28;20057;-61
2023/07/22 03:23:02;;;;;;;9.43;5.13;;;12.30;99.90;;;;;;5032325;28;20382;-61
2023/07/22 03:25:27;;;;;;;10.13;5.38;;;11.90;99.90;;;;;;5032329;28;20056;-61
2023/07/22 03:27:54;;;;;;;10.20;5.68;;;12.00;99.90;;;;;;5033718;28;20420;-61
2023/07/22 03:30:22;;;;;;;10.77;5.28;;;11.80;99.90;;;;;;5033631;28;20484;-61
2023/07/22 03:32:50;;;;;;;9.38;4.68;;;11.90;99.90;;;;;;5033738;28;20049;-61
2023/07/22 03:35:16;;;;;;;9.57;4.75;;;12.00;99.90;;;;;;5032204;28;20041;-61
2023/07/22 03:37:42;;;;;;;10.27;5.60;;;11.90;99.90;;;;;;5033575;28;20392;-61
2023/07/22 03:40:25;;;;;;;8.52;5.35;;;12.20;99.90;;;;;;5032103;28;20041;-61
2023/07/22 03:42:53;;;;;;;9.20;5.25;;;11.90;99.90;;;;;;5033616;28;20120;-61
2023/07/22 03:45:19;;;;;;;11.40;6.10;;;12.30;99.90;;;;;;5033534;28;20527;-61
2023/07/22 03:47:46;;;;;;;10.80;5.47;;;12.00;99.90;;;;;;5033236;28;20033;-61
2023/07/22 03:50:12;;;;;;;9.60;6.00;;;12.00;99.90;;;;;;5033424;28;20036;-61
2023/07/22 03:52:38;;;;;;;15.52;6.47;;;12.00;99.90;;;;;;5032088;28;20120;-61
2023/07/22 03:55:05;;;;;;;9.63;5.15;;;12.30;99.90;;;;;;5031879;28;20045;-63
2023/07/22 03:57:31;;;;;;;8.80;4.85;;;12.00;99.90;;;;;;5031809;28;20054;-61
2023/07/22 03:59:57;;;;;;;11.00;5.18;;;12.40;99.90;;;;;;5033047;28;20049;-61
2023/07/22 04:02:23;;;;;;;10.07;5.47;;;12.30;99.90;;;;;;5032851;28;20034;-61
2023/07/22 04:04:51;;;;;;;11.05;5.88;;;12.10;99.90;;;;;;5032674;28;20053;-61
2023/07/22 04:07:16;;;;;;;11.00;6.10;;;12.60;99.90;;;;;;5033179;28;20508;-61
2023/07/22 04:09:43;;;;;;;11.15;5.70;;;12.40;99.90;;;;;;5032800;28;20080;-61
2023/07/22 04:12:08;;;;;;;10.57;5.35;;;12.50;99.90;;;;;;5033148;28;20037;-61
2023/07/22 04:14:34;;;;;;;10.40;5.22;;;12.30;99.90;;;;;;5033075;28;20108;-61
2023/07/22 04:16:59;;;;;;;9.65;5.25;;;12.30;99.90;;;;;;5031644;28;20041;-61
2023/07/22 04:19:25;;;;;;;9.85;5.55;;;12.30;99.90;;;;;;5033074;28;20065;-61
2023/07/22 04:21:50;;;;;;;8.25;5.40;;;12.40;99.90;;;;;;5033027;28;20037;-61
2023/07/22 04:24:16;;;;;;;13.07;5.90;;;12.60;99.30;;;;;;5033117;28;20037;-61
2023/07/22 04:26:43;;;;;;;10.30;5.13;;;12.20;98.80;;;;;;5031524;28;20123;-61
2023/07/22 04:29:09;;;;;;;10.52;6.22;;;12.30;98.50;;;;;;5032987;28;20033;-61
2023/07/22 04:31:35;;;;;;;10.73;5.97;;;12.90;98.50;;;;;;5032926;28;20103;-61
2023/07/22 04:34:00;;;;;;;11.20;6.03;;;13.00;98.50;;;;;;5031414;28;20045;-61
2023/07/22 04:36:26;;;;;;;11.52;6.25;;;12.50;98.20;;;;;;5032717;28;20481;-61
2023/07/22 04:38:51;;;;;;;10.30;5.82;;;12.50;98.00;;;;;;5032874;28;20112;-61
2023/07/22 04:41:17;;;;;;;13.27;6.60;;;12.60;98.10;;;;;;5031573;28;20084;-61
2023/07/22 04:43:43;;;;;;;12.48;6.38;;;12.60;97.90;;;;;;5032543;28;20091;-61
2023/07/22 04:46:08;;;;;;;12.27;6.25;;;12.60;98.00;;;;;;5032522;28;20544;-61
2023/07/22 04:48:34;;;;;;;12.63;6.60;;;12.70;97.80;;;;;;5031318;28;20038;-68
2023/07/22 04:51:00;;;;;;;12.15;7.07;;;12.70;97.60;;;;;;5032424;28;20044;-61
2023/07/22 04:53:25;;;;;;;11.23;6.57;;;13.00;97.70;;;;;;5032765;28;20038;-61
2023/07/22 04:55:51;;;;;;;9.85;5.70;;;12.60;97.70;;;;;;5031543;28;20038;-61
2023/07/22 04:58:17;;;;;;;10.20;6.22;;;12.90;97.80;;;;;;5032663;28;20045;-61
2023/07/22 05:00:43;;;;;;;11.80;6.63;;;12.90;98.10;;;;;;5032419;28;20050;-61
2023/07/22 05:03:09;;;;;;;9.68;5.50;;;12.90;99.90;;;;;;5032339;28;20085;-61
2023/07/22 05:05:36;;;;;;;12.32;6.07;;;;;;;;;;5032237;28;20092;-61
2023/07/22 05:08:01;;;;;;;10.27;6.40;;;13.00;97.50;;;;;;5032264;28;20080;-61
2023/07/22 05:10:28;;;;;;;13.88;7.03;;;13.10;98.00;;;;;;5032479;28;20042;-61
2023/07/22 05:12:54;;;;;;;12.35;7.43;;;13.10;98.60;;;;;;5032242;28;20041;-61
2023/07/22 05:15:20;;;;;;;11.52;6.40;;;13.10;99.10;;;;;;5032526;28;20044;-61
2023/07/22 05:17:46;;;;;;;12.82;6.57;;;13.20;98.50;;;;;;5035884;28;20064;-61
2023/07/22 05:20:12;;;;;;;12.80;6.50;;;13.20;98.80;;;;;;5034731;28;20041;-61
2023/07/22 05:22:39;;;;;;;12.43;7.15;;;13.30;98.50;;;;;;5034888;28;20485;-61
2023/07/22 05:25:06;;;;;;;12.02;6.32;;;13.30;98.60;;;;;;5036156;28;20048;-61
2023/07/22 05:27:32;;;;;;;12.27;6.88;;;13.30;98.70;;;;;;5035742;28;20448;-61
2023/07/22 05:29:57;;;;;;;12.63;7.03;;;13.40;98.50;;;;;;5035966;28;20045;-61
2023/07/22 05:32:23;;;;;;;12.02;6.22;;;13.40;99.20;;;;;;5035984;28;20382;-61
2023/07/22 05:34:49;;;;;;;13.18;6.47;;;13.50;99.70;;;;;;5035621;28;20041;-61
2023/07/22 05:37:14;;;;;;;10.95;6.82;;;13.60;99.40;;;;;;5035863;28;20044;-61
2023/07/22 05:39:40;;;;;;;16.20;7.70;;;13.50;99.40;;;;;;5035512;28;20374;-61
2023/07/22 05:42:06;;;;;;;10.75;7.07;;;;;;;;;;5035745;28;20037;-61
2023/07/22 05:44:32;;;;;;;14.40;7.38;;;13.70;98.90;;;;;;5035728;28;20042;-61
2023/07/22 05:46:58;;;;;;;13.15;7.35;;;13.80;98.60;;;;;;5035731;28;20409;-61
2023/07/22 05:49:24;;;;;;;12.55;7.43;;;13.80;98.50;;;;;;5035277;28;20057;-61
2023/07/22 05:51:49;;;;;;;14.07;7.00;;;13.80;98.70;;;;;;5035638;28;20075;-61
2023/07/22 05:54:15;;;;;;;13.57;6.43;;;13.60;98.60;;;;;;5035534;28;20037;-61
2023/07/22 05:56:41;;;;;;;11.32;6.80;;;14.60;98.60;;;;;;5035103;28;20033;-61
2023/07/22 05:59:07;;;;;;;10.95;7.20;;;13.90;98.40;;;;;;5035288;28;20412;-61
2023/07/22 06:01:32;;;;;;;11.07;6.80;;;13.80;98.60;;;;;;5035525;28;20037;-61
2023/07/22 06:03:58;;;;;;;13.30;6.90;;;13.90;98.40;;;;;;5035060;28;20140;-61
2023/07/22 06:06:23;;;;;;;11.98;6.50;;;14.60;98.70;;;;;;5035384;28;20412;-61
2023/07/22 06:08:49;;;;;;;9.70;6.78;;;13.70;98.10;;;;;;5035374;28;20523;-61
2023/07/22 06:11:15;;;;;;;13.93;6.57;;;14.70;98.20;;;;;;5035174;28;20040;-61
2023/07/22 06:13:40;;;;;;;14.98;6.93;;;14.10;98.10;;;;;;5035216;28;20542;-62
2023/07/22 06:16:06;;;;;;;11.27;6.53;;;14.20;98.00;;;;;;5035224;28;20052;-62
2023/07/22 06:18:32;;;;;;;11.35;6.85;;;14.20;97.60;;;;;;5034864;28;20559;-61
2023/07/22 06:20:57;;;;;;;10.82;6.63;;;14.30;97.30;;;;;;5033576;28;20049;-61
2023/07/22 06:23:23;;;;;;;12.02;6.75;;;14.30;97.20;;;;;;5034707;28;20048;-64
2023/07/22 06:25:48;;;;;;;12.52;7.32;;;14.50;96.30;;;;;;5035008;28;20037;-61
2023/07/22 06:28:14;;;;;;;11.18;6.63;;;14.40;95.70;;;;;;5034049;28;20494;-64
2023/07/22 06:30:39;;;;;;;13.32;6.75;;;14.30;95.30;;;;;;5034792;28;20116;-66
2023/07/22 06:33:05;;;;;;;13.35;7.25;;;14.60;94.50;;;;;;5050311;28;20041;-65
2023/07/22 06:35:31;;;;;;;10.65;6.53;;;;;;;;;;5034825;28;20542;-62
2023/07/22 06:37:57;;;;;;;13.27;6.72;;;14.80;91.20;;;;;;5034785;28;20094;-66
2023/07/22 06:40:23;;;;;;;15.68;7.03;;;14.90;88.10;;;;;;5034372;28;20038;-67
2023/07/22 06:42:48;;;;;;;11.65;6.93;;;15.00;85.60;;;;;;5033139;28;20050;-65
2023/07/22 06:45:14;;;;;;;14.50;8.10;;;15.10;80.00;;;;;;5034651;28;20064;-62
2023/07/22 06:47:40;;;;;;;9.38;6.32;;;15.30;77.20;;;;;;5034184;28;20044;-63
2023/07/22 06:50:06;;;;;;;14.85;7.22;;;15.50;71.50;;;;;;5034393;28;20034;-62
2023/07/22 06:52:32;;;;;;;12.95;7.78;;;15.60;61.00;;;;;;5034123;28;20045;-62
2023/07/22 06:54:57;;;;;;;10.88;6.07;;;15.60;37.20;;;;;;5034372;28;20440;-62
2023/07/22 06:57:25;;;;;;;12.30;7.03;;;15.50;32.10;;;;;;5034343;28;20045;-61
2023/07/22 06:59:54;;;;;;;10.10;6.00;;;15.70;24.40;;;;;;5034325;28;20052;-61
2023/07/22 07:02:20;;;;;;;12.88;7.07;;;15.70;9.80;;;;;;5034082;28;20049;-61
2023/07/22 07:04:46;;;;;;;11.68;6.40;;;15.70;1.00;;;;;;5034219;28;20110;-61
2023/07/22 07:07:13;;;;;;;10.70;6.40;;;15.70;1.00;;;;;;5034128;28;20041;-61
2023/07/22 07:09:38;;;;;;;12.77;6.78;;;15.90;1.00;;;;;;5033979;28;20076;-61
2023/07/22 07:12:04;;;;;;;11.00;6.53;;;15.90;1.00;;;;;;5033939;28;20068;-62
2023/07/22 07:14:30;;;;;;;12.93;6.88;;;16.10;1.00;;;;;;5033556;28;20037;-62
2023/07/22 07:16:56;;;;;;;11.95;6.35;;;16.20;1.00;;;;;;5033970;28;20501;-62
2023/07/22 07:19:21;;;;;;;9.85;5.97;;;16.30;99.90;;;;;;5033568;28;20116;-62
2023/07/22 07:21:47;;;;;;;12.80;6.32;;;16.50;99.90;;;;;;5033865;28;20052;-62
2023/07/22 07:24:13;;;;;;;10.38;5.20;;;16.30;99.90;;;;;;5033737;28;20558;-63
2023/07/22 07:26:38;;;;;;;13.45;6.13;;;16.10;1.00;;;;;;5033379;28;20045;-69
2023/07/22 07:29:04;;;;;;;9.32;5.65;;;17.00;99.90;;;;;;5033747;28;20116;-68
2023/07/22 07:31:30;;;;;;;8.63;5.28;;;16.30;99.90;;;;;;5033504;28;20034;-62
2023/07/22 07:33:55;;;;;;;8.90;5.65;;;16.30;99.90;;;;;;5033608;28;20041;-62
2023/07/22 07:36:21;;;;;;;9.00;5.50;;;16.40;99.90;;;;;;5033275;28;20076;-63
2023/07/22 07:38:47;;;;;;;9.25;5.13;;;16.40;99.90;;;;;;5033170;28;20033;-62
2023/07/22 07:41:13;;;;;;;8.95;5.57;;;16.50;99.90;;;;;;5032506;28;20056;-68
2023/07/22 07:43:39;;;;;;;10.40;5.90;;;16.50;50.60;;;;;;5033438;28;20558;-67
2023/07/22 07:46:20;;;;;;;7.90;5.00;;;16.70;1.00;;;;;;5032174;28;20076;-61
2023/07/22 07:48:47;;;;;;;;;;;16.70;99.90;;;;;;5033822;28;20041;-61
2023/07/22 07:51:17;;;;;;;8.50;5.47;;;16.80;99.90;;;;;;5031796;28;19964;-62
2023/07/22 07:53:44;;;;;;;9.57;5.55;;;17.30;1.00;;;;;;5033195;28;20041;-62
2023/07/22 07:56:11;;;;;;;10.43;5.38;;;17.20;99.90;;;;;;5033328;28;20041;-62
2023/07/22 07:58:37;;;;;;;8.52;5.25;;;17.60;1.00;;;;;;5033248;28;20037;-62
2023/07/22 08:01:03;;;;;;;8.85;4.88;;;17.50;42.00;;;;;;5033261;28;20060;-62
2023/07/22 08:03:29;;;;;;;11.55;5.28;;;17.60;99.90;;;;;;5032725;28;20068;-62
2023/07/22 08:05:55;;;;;;;8.73;4.70;;;17.50;99.90;;;;;;5033175;28;20054;-62
2023/07/22 08:08:21;;;;;;;11.80;5.43;;;17.80;99.90;;;;;;5033125;28;20087;-63
2023/07/22 08:11:00;;;;;;;10.95;5.40;;;17.80;99.90;;;;;;5032795;28;20136;-68
2023/07/22 08:13:26;;;;;;;10.30;5.95;;;17.80;99.90;;;;;;5031888;28;20140;-64
2023/07/22 08:15:53;;;;;;;10.10;5.93;;;17.80;99.90;;;;;;5031548;28;20080;-64
2023/07/22 08:18:19;;;;;;;7.85;4.43;;;17.90;99.90;;;;;;5033014;28;20056;-62
2023/07/22 08:20:47;;;;;;;8.13;4.55;;;18.30;99.90;;;;;;5033018;28;20041;-62
2023/07/22 08:23:12;;;;;;;7.10;4.70;;;18.60;99.90;;;;;;5032898;28;20103;-62
2023/07/22 08:25:38;;;;;;;6.90;4.60;;;18.20;26.80;;;;;;5032900;28;20038;-62
2023/07/22 08:28:03;;;;;;;7.10;4.32;;;18.20;1.00;;;;;;5032925;28;20396;-72
2023/07/22 08:30:29;;;;;;;9.20;4.88;;;18.20;1.00;;;;;;5031170;28;20053;-64
2023/07/22 08:32:55;;;;;;;11.40;5.43;;;18.70;99.90;;;;;;5032719;28;20388;-64
2023/07/22 08:35:22;;;;;;;7.90;5.20;;;18.10;99.90;;;;;;5032725;28;20059;-64
2023/07/22 08:37:47;;;;;;;10.45;5.35;;;18.10;99.90;;;;;;5032679;28;20099;-65
2023/07/22 08:40:13;;;;;;;9.20;4.88;;;18.20;99.90;;;;;;5032648;28;20045;-64
2023/07/22 08:42:41;;;;;;;9.70;5.20;;;18.40;99.90;;;;;;5031462;28;20448;-68
2023/07/22 08:45:09;;;;;;;10.13;5.32;;;18.70;99.90;;;;;;5031302;28;20121;-65
2023/07/22 08:47:38;;;;;;;8.27;4.90;;;18.10;99.90;;;;;;5031446;28;20115;-64
2023/07/22 08:50:06;;;;;;;9.80;5.55;;;18.00;99.90;;;;;;5032625;28;20045;-64
2023/07/22 08:52:33;;;;;;;11.27;5.80;;;18.30;99.90;;;;;;5035722;28;20046;-64
2023/07/22 08:55:00;;;;;;;9.20;5.18;;;18.50;99.90;;;;;;5035057;28;20037;-65
2023/07/22 08:57:29;;;;;;;9.02;5.82;;;18.30;99.90;;;;;;5036614;28;20048;-65
2023/07/22 08:59:54;;;;;;;11.75;5.72;;;18.00;99.90;;;;;;5036464;28;20481;-65
2023/07/22 09:02:20;;;;;;;11.77;5.38;;;18.50;99.90;;;;;;5036011;28;20045;-64
2023/07/22 09:04:46;;;;;;;9.30;5.60;;;18.20;99.90;;;;;;5036306;28;20045;-64
2023/07/22 09:07:14;;;;;;;9.68;5.05;;;18.70;99.90;;;;;;5035874;28;20055;-64
2023/07/22 09:09:41;;;;;;;9.23;5.55;;;18.20;99.90;;;;;;5036006;28;20045;-64
2023/07/22 09:12:07;;;;;;;10.25;5.97;;;17.90;99.90;;;;;;5036074;28;20041;-64
2023/07/22 09:14:34;;;;;;;11.70;6.30;;;17.80;99.90;;;;;;5036259;28;20056;-62
2023/07/22 09:16:59;;;;;;;8.27;5.07;;;17.90;99.90;;;;;;5036027;28;20060;-61
2023/07/22 09:19:26;;;;;;;9.43;5.63;;;18.20;99.90;;;;;;5036259;28;20108;-61
2023/07/22 09:21:52;;;;;;;14.32;6.20;;;18.00;99.90;;;;;;5035816;28;20052;-61
2023/07/22 09:24:22;;;;;;;10.55;5.40;;;17.80;1.00;;;;;;5036091;28;20033;-62
2023/07/22 09:26:48;;;;;;;10.43;4.97;;;17.80;1.00;;;;;;5034607;28;20064;-61
2023/07/22 09:29:14;;;;;;;13.38;5.47;;;18.70;89.10;;;;;;5034809;28;20042;-61
2023/07/22 09:31:51;;;;;;;8.57;5.30;;;17.70;73.30;;;;;;5034354;28;20049;-61
2023/07/22 09:34:16;;;;;;;8.95;4.68;;;17.70;99.90;;;;;;5035937;28;20037;-62
2023/07/22 09:37:03;;;;;;;11.35;5.57;;;17.70;75.10;;;;;;5035566;28;20623;-61
2023/07/22 09:39:29;;;;;;;7.28;4.85;;;17.70;5.40;;;;;;5035753;28;20087;-62
2023/07/22 09:41:55;;;;;;;8.82;5.18;;;17.70;99.90;;;;;;5035432;28;20086;-61
2023/07/22 09:44:28;;;;;;;9.05;5.28;;;17.80;99.90;;;;;;5035754;28;20045;-62
2023/07/22 09:46:53;;;;;;;11.10;4.85;;;17.70;99.90;;;;;;5035727;28;20393;-68
2023/07/22 09:49:19;;;;;;;9.10;4.95;;;17.90;99.90;;;;;;5035440;28;20053;-61
2023/07/22 09:51:46;;;;;;;7.05;4.30;;;17.70;1.00;;;;;;5035591;28;20045;-61
2023/07/22 09:54:11;;;;;;;10.45;4.45;;;18.30;73.00;;;;;;5035614;28;20041;-61
2023/07/22 09:56:45;;;;;;;7.47;4.10;;;18.00;14.90;;;;;;5035235;28;20522;-61
2023/07/22 09:59:12;;;;;;;7.18;4.53;;;17.80;99.90;;;;;;5035504;28;20042;-61
2023/07/22 10:01:41;;;;;;;10.63;4.00;;;17.90;99.90;;;;;;5035492;28;20130;-61
2023/07/22 10:04:08;;;;;;;5.55;3.45;;;18.00;99.90;;;;;;5033937;28;20119;-61
2023/07/22 10:06:34;;;;;;;7.40;3.70;;;18.70;99.90;;;;;;5035366;28;20460;-61
2023/07/22 10:09:07;;;;;;;9.00;3.53;;;18.40;99.90;;;;;;5035065;28;20030;-61
2023/07/22 10:11:36;;;;;;;5.85;3.35;;;18.10;99.90;;;;;;5034915;28;20091;-61
2023/07/22 10:14:02;;;;;;;4.78;2.85;;;18.20;93.60;;;;;;5035204;28;20038;-61
2023/07/22 10:16:28;;;;;;;5.35;3.10;;;18.20;1.00;;;;;;5034846;28;20036;-61
2023/07/22 10:18:54;;;;;;;5.55;2.88;;;18.40;99.90;;;;;;5034899;28;20044;-61
2023/07/22 10:21:21;;;;;;;7.78;2.97;;;18.30;1.00;;;;;;5035051;28;20073;-61
2023/07/22 10:23:48;;;;;;;4.40;2.80;;;18.40;1.00;;;;;;5033663;28;20049;-61
2023/07/22 10:26:18;;;;;;;4.57;2.60;;;18.40;99.90;;;;;;5034932;28;20392;-61
2023/07/22 10:28:45;;;;;;;5.15;2.67;;;18.30;99.90;;;;;;5035134;28;20392;-62
2023/07/22 10:31:12;;;;;;;3.72;1.92;;;18.40;99.90;;;;;;5034413;28;20042;-62
2023/07/22 10:33:38;;;;;;;4.93;2.40;;;18.10;99.90;;;;;;5034690;28;20408;-61
2023/07/22 10:36:08;;;;;;;5.10;2.33;;;18.10;99.90;;;;;;5034698;28;20030;-61
2023/07/22 10:38:35;;;;;;;5.68;2.35;;;18.10;99.90;;;;;;5034488;28;20041;-61
2023/07/22 10:41:01;;;;;;;3.75;2.30;;;17.70;99.90;;;;;;5033351;28;20116;-63
2023/07/22 10:43:30;;;;;;;4.05;2.30;;;18.00;99.90;;;;;;5033394;28;20136;-62
2023/07/22 10:45:58;;;;;;;4.53;2.17;;;17.80;99.90;;;;;;5033114;28;20033;-62
2023/07/22 10:48:28;;;;;;;3.05;1.85;;;17.80;99.90;;;;;;5034514;28;20048;-63
2023/07/22 10:50:57;;;;;;;4.80;2.17;;;17.70;99.90;;;;;;5034148;28;20048;-67
2023/07/22 10:53:26;;;;;;;6.75;2.40;;;17.80;99.90;;;;;;5034486;28;20049;-61
2023/07/22 10:56:12;;;;;;;4.65;2.15;;;17.80;99.90;;;;;;5034090;28;20037;-62
2023/07/22 10:58:46;;;;;;;3.40;2.15;;;17.80;1.00;;;;;;5034383;28;20055;-62
2023/07/22 11:01:28;;;;;;;3.35;1.98;;;18.20;1.00;;;;;;5032865;28;20056;-62
2023/07/22 11:04:10;;;;;;;4.47;2.60;;;17.70;99.90;;;;;;5032671;28;20085;-63
2023/07/22 11:06:38;;;;;;;4.03;2.10;;;17.60;99.90;;;;;;5034256;28;20041;-61
2023/07/22 11:09:05;;;;;;;5.00;2.95;;;17.50;1.00;;;;;;5032771;28;20424;-65
2023/07/22 11:11:44;;;;;;;5.25;2.78;;;17.50;57.30;;;;;;5034096;28;20116;-66
2023/07/22 11:14:14;;;;;;;4.65;2.70;;;17.30;99.90;;;;;;5033774;28;20043;-61
2023/07/22 11:16:42;;;;;;;8.07;3.17;;;17.40;1.00;;;;;;5033749;28;20079;-61
2023/07/22 11:19:08;;;;;;;7.18;2.95;;;16.80;81.60;;;;;;5034018;28;20040;-62
2023/07/22 11:21:33;;;;;;;9.27;3.45;;;17.10;99.90;;;;;;5033934;28;20476;-60
2023/07/22 11:23:59;;;;;;;6.63;3.17;;;16.90;99.90;;;;;;5033974;28;20041;-61
2023/07/22 11:26:25;;;;;;;6.93;3.72;;;16.60;99.90;;;;;;5033605;28;20151;-63
2023/07/22 11:28:52;;;;;;;6.82;3.88;;;16.50;99.90;;;;;;5032269;28;20400;-61
2023/07/22 11:31:18;;;;;;;6.78;4.10;;;16.30;99.90;;;;;;5032175;28;20045;-61
2023/07/22 11:33:46;;;;;;;6.25;4.38;;;16.60;93.10;;;;;;5033967;28;20049;-61
2023/07/22 11:36:13;;;;;;;7.82;4.15;;;16.10;99.90;;;;;;5033486;28;20041;-62
2023/07/22 11:38:39;;;;;;;6.55;4.68;;;16.10;99.90;;;;;;5032440;28;20045;-62
2023/07/22 11:41:05;;;;;;;6.85;4.25;;;16.00;99.90;;;;;;5033581;28;20048;-61
2023/07/22 11:43:31;;;;;;;7.97;4.80;;;15.80;1.00;;;;;;5033230;28;20045;-61
2023/07/22 11:45:57;;;;;;;7.82;4.28;;;15.40;1.00;;;;;;5032024;28;20045;-60
2023/07/22 11:48:22;;;;;;;8.32;4.72;;;15.80;1.00;;;;;;5033500;28;20048;-60
2023/07/22 11:50:48;;;;;;;8.02;4.60;;;15.70;53.00;;;;;;5033301;28;20045;-61
2023/07/22 11:53:14;;;;;;;8.35;4.85;;;16.00;81.10;;;;;;5033403;28;20044;-62
2023/07/22 11:55:41;;;;;;;8.82;4.95;;;15.70;90.20;;;;;;5033288;28;20107;-60
2023/07/22 11:58:09;;;;;;;9.43;5.40;;;15.60;92.10;;;;;;5033352;28;20452;-64
2023/07/22 12:00:34;;;;;;;7.93;5.22;;;15.40;94.60;;;;;;5033381;28;20374;-61
2023/07/22 12:03:05;;;;;;;7.45;4.97;;;15.70;99.60;;;;;;5032892;28;20104;-61
2023/07/22 12:05:35;;;;;;;7.30;4.70;;;15.50;99.90;;;;;;5033169;28;20083;-61
2023/07/22 12:08:03;;;;;;;9.82;5.40;;;15.50;99.90;;;;;;5032901;28;20037;-63
2023/07/22 12:10:29;;;;;;;8.27;6.05;;;15.70;99.90;;;;;;5032994;28;20120;-61
2023/07/22 12:13:00;;;;;;;8.75;5.63;;;16.00;99.90;;;;;;5033081;28;20117;-63
2023/07/22 12:15:26;;;;;;;8.32;5.40;;;15.70;99.90;;;;;;5033146;28;20537;-61
2023/07/22 12:17:54;;;;;;;7.85;5.15;;;15.70;99.90;;;;;;5031725;28;20120;-61
2023/07/22 12:20:32;;;;;;;7.63;4.90;;;15.70;99.90;;;;;;5032693;28;20129;-62
2023/07/22 12:22:59;;;;;;;7.90;4.80;;;15.70;99.90;;;;;;5033366;28;20480;-61
2023/07/22 12:25:25;;;;;;;7.25;4.45;;;15.70;99.90;;;;;;5032286;28;20045;-61
2023/07/22 12:27:50;;;;;;;6.45;4.45;;;15.80;99.90;;;;;;5032731;28;20052;-61
2023/07/22 12:30:17;;;;;;;7.25;4.25;;;15.70;99.90;;;;;;5031338;28;20049;-61
2023/07/22 12:32:42;;;;;;;7.82;4.07;;;16.30;99.90;;;;;;5032534;28;20041;-61
2023/07/22 12:35:09;;;;;;;6.32;4.03;;;15.80;99.90;;;;;;5032606;28;20030;-60
2023/07/22 12:37:35;;;;;;;6.50;4.15;;;16.50;99.90;;;;;;5032816;28;20044;-61
2023/07/22 12:40:01;;;;;;;6.20;4.20;;;15.80;99.90;;;;;;5032557;28;20041;-60
2023/07/22 12:42:26;;;;;;;8.02;4.32;;;16.10;99.90;;;;;;5032463;28;20124;-60